createdAt,value
2018-07-15T00:00:14.840Z,24.82
2018-07-15T00:01:19.050Z,20.35
2018-07-15T00:02:23.188Z,20.50
2018-07-15T00:03:27.291Z,19.55
2018-07-15T00:04:31.323Z,18.35
2018-07-15T00:05:35.336Z,17.20
2018-07-15T00:06:39.358Z,36.90
2018-07-15T00:07:43.456Z,52.85
2018-07-15T00:08:47.489Z,45.48
2018-07-15T00:09:51.510Z,38.75
2018-07-15T00:10:55.494Z,29.60
2018-07-15T00:11:59.542Z,20.72
2018-07-15T00:13:03.562Z,19.10
2018-07-15T00:14:07.583Z,18.70
2018-07-15T00:15:11.588Z,23.65
2018-07-15T00:16:15.646Z,36.77
2018-07-15T00:17:19.650Z,28.80
2018-07-15T00:18:23.705Z,27.00
2018-07-15T00:19:27.767Z,26.17
2018-07-15T00:20:31.851Z,23.77
2018-07-15T00:21:35.870Z,24.27
2018-07-15T00:22:39.924Z,20.95
2018-07-15T00:23:43.898Z,22.05
2018-07-15T00:24:47.947Z,22.77
2018-07-15T00:25:51.971Z,19.95
2018-07-15T00:26:56.182Z,21.55
2018-07-15T00:28:00.328Z,19.85
2018-07-15T00:29:04.414Z,22.02
2018-07-15T00:30:08.551Z,20.32
2018-07-15T00:31:12.650Z,21.73
2018-07-15T00:32:16.670Z,20.65
2018-07-15T00:33:20.806Z,19.87
2018-07-15T00:34:24.801Z,20.75
2018-07-15T00:35:28.801Z,21.00
2018-07-15T00:36:32.790Z,22.13
2018-07-15T00:37:36.846Z,20.40
2018-07-15T00:38:40.900Z,20.37
2018-07-15T00:39:44.915Z,20.50
2018-07-15T00:40:48.979Z,21.50
2018-07-15T00:41:53.217Z,20.20
2018-07-15T00:42:57.252Z,19.40
2018-07-15T00:44:01.289Z,20.80
2018-07-15T00:45:05.347Z,20.52
2018-07-15T00:46:09.417Z,20.85
2018-07-15T00:47:13.454Z,25.10
2018-07-15T00:48:17.502Z,24.37
2018-07-15T00:49:21.552Z,22.50
2018-07-15T00:50:25.555Z,20.75
2018-07-15T00:51:29.606Z,20.82
2018-07-15T00:52:33.698Z,22.30
2018-07-15T00:53:37.709Z,23.18
2018-07-15T00:54:41.708Z,22.37
2018-07-15T00:55:45.771Z,20.35
2018-07-15T00:56:49.919Z,23.02
2018-07-15T00:57:53.966Z,22.80
2018-07-15T00:58:58.033Z,20.02
2018-07-15T01:00:02.046Z,20.80
2018-07-15T01:01:06.070Z,24.67
2018-07-15T01:02:10.139Z,21.55
2018-07-15T01:03:14.124Z,23.87
2018-07-15T01:04:18.186Z,20.45
2018-07-15T01:05:22.228Z,24.02
2018-07-15T01:06:26.283Z,20.27
2018-07-15T01:07:30.390Z,20.05
2018-07-15T01:08:34.406Z,21.57
2018-07-15T01:09:38.399Z,28.90
2018-07-15T01:10:42.406Z,24.95
2018-07-15T01:11:46.405Z,24.18
2018-07-15T01:12:50.424Z,27.55
2018-07-15T01:13:54.548Z,20.10
2018-07-15T01:14:58.561Z,20.75
2018-07-15T01:16:02.615Z,19.67
2018-07-15T01:17:06.692Z,20.68
2018-07-15T01:18:10.770Z,18.80
2018-07-15T01:19:21.263Z,19.45
2018-07-15T01:20:25.349Z,18.90
2018-07-15T01:21:29.389Z,19.92
2018-07-15T01:22:33.440Z,21.17
2018-07-15T01:23:37.479Z,29.55
2018-07-15T01:24:41.501Z,23.77
2018-07-15T01:25:45.541Z,25.25
2018-07-15T01:26:49.668Z,23.07
2018-07-15T01:27:53.724Z,20.17
2018-07-15T01:28:57.725Z,19.42
2018-07-15T01:30:01.783Z,17.65
2018-07-15T01:31:05.890Z,18.17
2018-07-15T01:32:09.970Z,23.83
2018-07-15T01:33:13.972Z,20.57
2018-07-15T01:34:17.966Z,22.30
2018-07-15T01:35:22.025Z,22.20
2018-07-15T01:36:25.998Z,17.55
2018-07-15T01:37:30.042Z,19.90
2018-07-15T01:38:34.064Z,19.00
2018-07-15T01:39:38.068Z,17.57
2018-07-15T01:40:42.102Z,16.73
2018-07-15T01:41:46.122Z,15.75
2018-07-15T01:42:50.144Z,16.02
2018-07-15T01:43:54.154Z,16.07
2018-07-15T01:44:58.237Z,17.75
2018-07-15T01:46:02.227Z,17.00
2018-07-15T01:47:06.226Z,16.35
2018-07-15T01:48:10.246Z,17.05
2018-07-15T01:49:14.277Z,17.17
2018-07-15T01:50:18.428Z,16.65
2018-07-15T01:51:22.380Z,15.70
2018-07-15T01:52:26.410Z,16.95
2018-07-15T01:53:30.473Z,16.93
2018-07-15T01:54:34.489Z,16.35
2018-07-15T01:55:38.508Z,16.87
2018-07-15T01:56:42.492Z,15.70
2018-07-15T01:57:46.543Z,16.07
2018-07-15T01:58:50.600Z,16.20
2018-07-15T01:59:54.835Z,15.63
2018-07-15T02:00:58.899Z,16.32
2018-07-15T02:02:03.383Z,16.35
2018-07-15T02:03:07.406Z,15.53
2018-07-15T02:04:11.455Z,15.72
2018-07-15T02:05:15.519Z,15.43
2018-07-15T02:06:19.667Z,15.18
2018-07-15T02:07:23.739Z,16.48
2018-07-15T02:08:27.817Z,15.60
2018-07-15T02:09:31.836Z,14.10
2018-07-15T02:10:35.833Z,16.25
2018-07-15T02:11:39.890Z,14.25
2018-07-15T02:12:43.938Z,15.60
2018-07-15T02:13:48.140Z,14.95
2018-07-15T02:14:52.167Z,14.65
2018-07-15T02:15:56.187Z,13.90
2018-07-15T02:17:00.243Z,14.98
2018-07-15T02:18:04.306Z,13.78
2018-07-15T02:19:08.347Z,14.40
2018-07-15T02:20:12.353Z,14.68
2018-07-15T02:21:16.471Z,14.30
2018-07-15T02:22:20.476Z,16.27
2018-07-15T02:23:24.504Z,15.25
2018-07-15T02:24:28.502Z,15.78
2018-07-15T02:25:32.495Z,14.63
2018-07-15T02:26:36.559Z,13.98
2018-07-15T02:27:40.596Z,14.73
2018-07-15T02:28:44.618Z,14.78
2018-07-15T02:29:48.769Z,14.15
2018-07-15T02:30:52.814Z,14.10
2018-07-15T02:31:56.842Z,13.68
2018-07-15T02:33:00.830Z,14.75
2018-07-15T02:34:05.682Z,14.90
2018-07-15T02:35:09.752Z,14.18
2018-07-15T02:36:20.243Z,15.30
2018-07-15T02:37:24.238Z,15.30
2018-07-15T02:38:28.258Z,14.93
2018-07-15T02:39:32.249Z,14.13
2018-07-15T02:40:36.318Z,14.80
2018-07-15T02:41:40.392Z,14.95
2018-07-15T02:42:44.512Z,15.93
2018-07-15T02:43:48.937Z,14.38
2018-07-15T02:44:52.990Z,13.30
2018-07-15T02:45:57.072Z,15.53
2018-07-15T02:47:01.136Z,15.50
2018-07-15T02:48:05.407Z,15.32
2018-07-15T02:49:09.452Z,16.62
2018-07-15T02:50:13.451Z,13.28
2018-07-15T02:51:17.438Z,13.65
2018-07-15T02:52:21.574Z,13.53
2018-07-15T02:53:25.670Z,13.85
2018-07-15T02:54:29.682Z,14.10
2018-07-15T02:55:33.698Z,13.90
2018-07-15T02:57:52.584Z,13.98
2018-07-15T03:00:07.481Z,14.60
2018-07-15T03:01:11.494Z,14.73
2018-07-15T03:02:15.569Z,15.00
2018-07-15T03:03:19.562Z,13.62
2018-07-15T03:04:23.579Z,14.85
2018-07-15T03:05:27.669Z,13.90
2018-07-15T03:06:31.716Z,14.23
2018-07-15T03:07:35.728Z,15.80
2018-07-15T03:08:39.759Z,14.23
2018-07-15T03:09:43.820Z,14.15
2018-07-15T03:10:47.847Z,15.48
2018-07-15T03:11:51.967Z,12.65
2018-07-15T03:12:55.983Z,15.20
2018-07-15T03:13:59.991Z,14.50
2018-07-15T03:15:04.017Z,13.72
2018-07-15T03:16:08.055Z,14.85
2018-07-15T03:17:12.083Z,13.80
2018-07-15T03:18:16.070Z,14.68
2018-07-15T03:19:20.098Z,15.43
2018-07-15T03:20:24.189Z,14.40
2018-07-15T03:21:28.271Z,14.43
2018-07-15T03:22:32.313Z,13.80
2018-07-15T03:23:36.354Z,14.93
2018-07-15T03:24:40.403Z,15.38
2018-07-15T03:25:44.445Z,13.95
2018-07-15T03:26:48.540Z,13.40
2018-07-15T03:27:52.538Z,15.28
2018-07-15T03:28:56.584Z,14.18
2018-07-15T03:30:00.626Z,14.35
2018-07-15T03:31:04.703Z,14.40
2018-07-15T03:32:08.708Z,14.78
2018-07-15T03:33:12.738Z,15.23
2018-07-15T03:34:16.740Z,15.32
2018-07-15T03:35:20.969Z,15.13
2018-07-15T03:36:25.005Z,14.65
2018-07-15T03:37:29.021Z,14.73
2018-07-15T03:38:33.058Z,14.93
2018-07-15T03:39:37.051Z,15.80
2018-07-15T03:40:41.060Z,13.43
2018-07-15T03:41:45.149Z,14.93
2018-07-15T03:42:49.126Z,14.43
2018-07-15T03:43:53.303Z,14.18
2018-07-15T03:44:57.321Z,14.95
2018-07-15T03:46:01.347Z,13.53
2018-07-15T03:47:05.403Z,14.75
2018-07-15T03:48:09.429Z,14.78
2018-07-15T03:49:13.451Z,13.62
2018-07-15T03:50:18.494Z,14.10
2018-07-15T03:51:22.555Z,14.47
2018-07-15T03:52:26.591Z,15.80
2018-07-15T03:53:30.594Z,14.38
2018-07-15T03:54:34.627Z,14.18
2018-07-15T03:55:38.702Z,14.70
2018-07-15T03:56:42.791Z,14.38
2018-07-15T03:57:46.847Z,13.88
2018-07-15T03:58:50.898Z,13.18
2018-07-15T03:59:54.914Z,13.50
2018-07-15T04:00:59.008Z,12.88
2018-07-15T04:02:03.408Z,13.85
2018-07-15T04:03:07.655Z,12.70
2018-07-15T04:04:11.430Z,12.30
2018-07-15T04:05:15.346Z,11.65
2018-07-15T04:06:19.353Z,12.03
2018-07-15T04:07:23.424Z,12.50
2018-07-15T04:08:27.467Z,11.95
2018-07-15T04:09:31.464Z,12.28
2018-07-15T04:10:35.476Z,12.37
2018-07-15T04:11:39.527Z,11.95
2018-07-15T04:12:43.564Z,12.23
2018-07-15T04:13:47.703Z,12.23
2018-07-15T04:14:51.706Z,12.50
2018-07-15T04:15:55.725Z,12.55
2018-07-15T04:16:59.743Z,12.05
2018-07-15T04:18:05.205Z,11.12
2018-07-15T04:19:09.314Z,13.22
2018-07-15T04:20:13.342Z,12.10
2018-07-15T04:21:17.413Z,12.68
2018-07-15T04:22:21.499Z,11.90
2018-07-15T04:23:25.548Z,10.95
2018-07-15T04:24:29.564Z,11.20
2018-07-15T04:25:34.396Z,10.98
2018-07-15T04:26:38.584Z,11.68
2018-07-15T04:27:42.590Z,11.63
2018-07-15T04:28:46.699Z,11.93
2018-07-15T04:29:50.782Z,12.00
2018-07-15T04:30:54.805Z,13.25
2018-07-15T04:31:58.913Z,11.15
2018-07-15T04:33:02.951Z,11.40
2018-07-15T04:34:06.697Z,11.18
2018-07-15T04:35:10.669Z,11.88
2018-07-15T04:36:14.683Z,11.60
2018-07-15T04:37:18.696Z,11.93
2018-07-15T04:38:22.711Z,11.75
2018-07-15T04:39:26.779Z,12.03
2018-07-15T04:40:30.829Z,11.40
2018-07-15T04:41:34.888Z,10.75
2018-07-15T04:42:39.130Z,12.55
2018-07-15T04:43:43.216Z,11.75
2018-07-15T04:44:47.209Z,11.97
2018-07-15T04:45:51.204Z,12.25
2018-07-15T04:46:55.259Z,11.68
2018-07-15T04:47:59.323Z,11.28
2018-07-15T04:49:03.333Z,10.60
2018-07-15T04:50:07.446Z,11.20
2018-07-15T04:51:11.427Z,10.50
2018-07-15T04:52:15.500Z,11.22
2018-07-15T04:53:19.515Z,10.50
2018-07-15T04:54:23.560Z,10.70
2018-07-15T04:55:27.578Z,11.08
2018-07-15T04:56:31.582Z,10.70
2018-07-15T04:57:35.572Z,11.45
2018-07-15T04:58:39.715Z,11.75
2018-07-15T04:59:43.723Z,11.28
2018-07-15T05:00:47.726Z,10.95
2018-07-15T05:01:51.729Z,11.95
2018-07-15T05:02:55.755Z,12.05
2018-07-15T05:03:59.785Z,11.65
2018-07-15T05:05:03.856Z,11.73
2018-07-15T05:06:07.859Z,11.48
2018-07-15T05:07:11.883Z,10.90
2018-07-15T05:08:15.879Z,10.70
2018-07-15T05:09:19.919Z,10.78
2018-07-15T05:10:23.982Z,10.93
2018-07-15T05:11:28.016Z,10.40
2018-07-15T05:12:32.057Z,11.63
2018-07-15T05:13:36.094Z,10.85
2018-07-15T05:14:40.118Z,10.60
2018-07-15T05:15:44.170Z,11.48
2018-07-15T05:16:48.220Z,12.53
2018-07-15T05:17:52.226Z,11.30
2018-07-15T05:18:56.247Z,10.95
2018-07-15T05:20:00.267Z,11.38
2018-07-15T05:21:04.290Z,12.33
2018-07-15T05:22:08.351Z,11.73
2018-07-15T05:23:12.419Z,11.78
2018-07-15T05:24:16.481Z,11.12
2018-07-15T05:25:20.502Z,11.68
2018-07-15T05:26:24.553Z,11.22
2018-07-15T05:27:28.603Z,12.43
2018-07-15T05:28:32.719Z,11.18
2018-07-15T05:29:36.714Z,12.95
2018-07-15T05:30:40.774Z,11.60
2018-07-15T05:31:44.942Z,11.88
2018-07-15T05:32:48.977Z,11.25
2018-07-15T05:33:53.107Z,12.33
2018-07-15T05:34:57.139Z,10.78
2018-07-15T05:36:01.150Z,12.63
2018-07-15T05:37:05.176Z,11.43
2018-07-15T05:38:08.991Z,11.38
2018-07-15T05:39:12.879Z,11.65
2018-07-15T05:40:16.879Z,11.90
2018-07-15T05:41:20.954Z,12.40
2018-07-15T05:42:24.982Z,11.48
2018-07-15T05:43:29.211Z,11.50
2018-07-15T05:44:33.256Z,11.60
2018-07-15T05:45:37.302Z,11.53
2018-07-15T05:46:41.326Z,9.65
2018-07-15T05:47:45.341Z,13.15
2018-07-15T05:48:49.371Z,11.68
2018-07-15T05:49:53.389Z,12.30
2018-07-15T05:50:57.422Z,11.95
2018-07-15T05:52:01.651Z,13.35
2018-07-15T05:53:05.722Z,12.10
2018-07-15T05:54:09.771Z,11.60
2018-07-15T05:55:13.906Z,11.57
2018-07-15T05:56:17.986Z,13.45
2018-07-15T05:57:22.057Z,11.70
2018-07-15T05:58:26.136Z,12.33
2018-07-15T05:59:30.195Z,11.00
2018-07-15T06:00:34.256Z,13.58
2018-07-15T06:01:38.422Z,13.45
2018-07-15T06:02:42.445Z,12.80
2018-07-15T06:03:46.471Z,13.10
2018-07-15T06:04:50.565Z,13.15
2018-07-15T06:05:54.603Z,12.43
2018-07-15T06:06:58.650Z,12.73
2018-07-15T06:08:02.705Z,12.98
2018-07-15T06:09:06.972Z,12.65
2018-07-15T06:10:11.000Z,12.47
2018-07-15T06:11:15.213Z,11.60
2018-07-15T06:12:19.300Z,11.70
2018-07-15T06:13:23.325Z,11.60
2018-07-15T06:14:27.374Z,12.40
2018-07-15T06:15:31.408Z,12.33
2018-07-15T06:16:35.489Z,11.80
2018-07-15T06:17:39.894Z,12.70
2018-07-15T06:18:44.226Z,13.32
2018-07-15T06:19:48.183Z,12.20
2018-07-15T06:20:52.813Z,12.53
2018-07-15T06:21:57.632Z,11.33
2018-07-15T06:23:01.682Z,13.32
2018-07-15T06:24:06.064Z,12.00
2018-07-15T06:25:10.124Z,11.55
2018-07-15T06:26:14.152Z,11.80
2018-07-15T06:27:18.191Z,11.43
2018-07-15T06:28:22.254Z,11.75
2018-07-15T06:29:26.924Z,11.55
2018-07-15T06:30:32.134Z,12.03
2018-07-15T06:31:37.273Z,11.88
2018-07-15T06:32:42.773Z,10.85
2018-07-15T06:33:46.963Z,11.60
2018-07-15T06:34:50.924Z,11.55
2018-07-15T06:35:54.689Z,11.60
2018-07-15T06:36:59.176Z,11.78
2018-07-15T06:38:03.271Z,10.85
2018-07-15T06:39:08.188Z,11.43
2018-07-15T06:40:12.474Z,10.95
2018-07-15T06:41:16.469Z,10.88
2018-07-15T06:42:21.326Z,9.88
2018-07-15T06:43:25.342Z,11.22
2018-07-15T06:44:29.380Z,9.83
2018-07-15T06:45:33.502Z,10.30
2018-07-15T06:46:37.530Z,10.25
2018-07-15T06:47:41.568Z,10.90
2018-07-15T06:48:45.572Z,10.93
2018-07-15T06:49:49.629Z,10.18
2018-07-15T06:50:53.770Z,8.93
2018-07-15T06:51:57.832Z,10.80
2018-07-15T06:53:01.837Z,9.55
2018-07-15T06:54:06.025Z,9.15
2018-07-15T06:55:10.061Z,9.35
2018-07-15T06:56:14.127Z,8.78
2018-07-15T06:57:18.224Z,9.78
2018-07-15T06:58:22.297Z,9.60
2018-07-15T06:59:26.339Z,8.45
2018-07-15T07:00:30.452Z,9.03
2018-07-15T07:01:34.469Z,9.03
2018-07-15T07:02:38.493Z,8.35
2018-07-15T07:03:42.505Z,9.30
2018-07-15T07:04:46.609Z,9.93
2018-07-15T07:05:50.606Z,9.10
2018-07-15T07:06:54.658Z,8.58
2018-07-15T07:07:58.606Z,8.58
2018-07-15T07:09:04.357Z,8.80
2018-07-15T07:10:08.395Z,9.08
2018-07-15T07:11:12.449Z,8.73
2018-07-15T07:12:16.578Z,9.00
2018-07-15T07:13:20.583Z,9.95
2018-07-15T07:14:24.604Z,8.83
2018-07-15T07:15:28.335Z,9.13
2018-07-15T07:16:32.440Z,8.53
2018-07-15T07:17:36.528Z,9.75
2018-07-15T07:18:40.569Z,8.18
2018-07-15T07:19:44.375Z,9.43
2018-07-15T07:20:48.246Z,8.50
2018-07-15T07:21:52.259Z,9.38
2018-07-15T07:22:56.276Z,8.05
2018-07-15T07:24:00.277Z,9.08
2018-07-15T07:25:04.379Z,14.75
2018-07-15T07:26:08.545Z,9.10
2018-07-15T07:27:12.558Z,8.55
2018-07-15T07:28:16.617Z,12.05
2018-07-15T07:29:20.643Z,9.10
2018-07-15T07:30:24.683Z,10.93
2018-07-15T07:31:28.874Z,15.43
2018-07-15T07:32:32.854Z,10.72
2018-07-15T07:33:36.863Z,10.43
2018-07-15T07:34:40.857Z,9.40
2018-07-15T07:35:44.854Z,9.30
2018-07-15T07:36:48.878Z,9.33
2018-07-15T07:37:52.902Z,8.30
2018-07-15T07:38:56.900Z,8.85
2018-07-15T07:40:00.979Z,7.80
2018-07-15T07:41:04.986Z,8.15
2018-07-15T07:42:09.082Z,8.48
2018-07-15T07:43:13.179Z,8.15
2018-07-15T07:44:17.226Z,8.33
2018-07-15T07:45:21.318Z,8.43
2018-07-15T07:46:25.330Z,8.70
2018-07-15T07:47:29.390Z,10.45
2018-07-15T07:48:33.576Z,10.63
2018-07-15T07:49:37.597Z,9.08
2018-07-15T07:50:41.604Z,8.70
2018-07-15T07:51:45.680Z,7.47
2018-07-15T07:52:49.670Z,8.00
2018-07-15T07:53:53.765Z,8.98
2018-07-15T07:54:58.017Z,8.28
2018-07-15T07:56:01.987Z,8.08
2018-07-15T07:57:06.210Z,8.30
2018-07-15T07:58:10.227Z,8.13
2018-07-15T07:59:14.258Z,9.10
2018-07-15T08:00:18.230Z,8.45
2018-07-15T08:01:22.326Z,7.92
2018-07-15T08:02:26.346Z,8.60
2018-07-15T08:03:30.394Z,8.33
2018-07-15T08:04:34.411Z,7.80
2018-07-15T08:05:38.455Z,7.10
2018-07-15T08:06:42.483Z,8.35
2018-07-15T08:07:46.508Z,10.13
2018-07-15T08:08:50.214Z,8.00
2018-07-15T08:09:54.065Z,8.03
2018-07-15T08:10:58.123Z,7.90
2018-07-15T08:12:02.180Z,7.35
2018-07-15T08:13:06.984Z,7.42
2018-07-15T08:14:11.038Z,7.62
2018-07-15T08:15:15.050Z,6.60
2018-07-15T08:16:19.035Z,7.92
2018-07-15T08:17:23.086Z,6.28
2018-07-15T08:18:27.109Z,7.08
2018-07-15T08:19:31.165Z,6.42
2018-07-15T08:20:35.158Z,6.97
2018-07-15T08:21:39.171Z,7.08
2018-07-15T08:22:43.266Z,7.45
2018-07-15T08:23:47.188Z,7.85
2018-07-15T08:24:51.249Z,7.30
2018-07-15T08:25:55.478Z,7.62
2018-07-15T08:26:59.507Z,7.62
2018-07-15T08:28:03.530Z,6.92
2018-07-15T08:29:07.737Z,7.45
2018-07-15T08:30:23.159Z,6.40
2018-07-15T08:31:27.200Z,6.00
2018-07-15T08:32:31.393Z,6.42
2018-07-15T08:33:35.509Z,6.53
2018-07-15T08:34:39.665Z,7.87
2018-07-15T08:35:43.675Z,6.95
2018-07-15T08:36:47.712Z,7.08
2018-07-15T08:37:51.807Z,6.62
2018-07-15T08:38:55.854Z,5.60
2018-07-15T08:39:59.901Z,7.30
2018-07-15T08:41:03.959Z,6.90
2018-07-15T08:42:08.059Z,6.42
2018-07-15T08:43:12.076Z,7.50
2018-07-15T08:44:16.085Z,5.97
2018-07-15T08:45:20.247Z,6.85
2018-07-15T08:46:24.283Z,6.60
2018-07-15T08:47:28.394Z,6.20
2018-07-15T08:48:33.153Z,8.43
2018-07-15T08:49:37.344Z,6.22
2018-07-15T08:50:41.417Z,5.45
2018-07-15T08:51:45.505Z,6.15
2018-07-15T08:52:49.660Z,5.58
2018-07-15T08:53:53.838Z,5.90
2018-07-15T08:54:58.082Z,6.12
2018-07-15T08:56:02.143Z,5.85
2018-07-15T08:57:06.317Z,6.62
2018-07-15T08:58:10.414Z,6.10
2018-07-15T08:59:14.478Z,6.37
2018-07-15T09:00:18.862Z,8.15
2018-07-15T09:01:22.852Z,7.62
2018-07-15T09:02:26.893Z,7.33
2018-07-15T09:03:30.942Z,6.97
2018-07-15T09:04:35.044Z,7.37
2018-07-15T09:05:39.160Z,6.97
2018-07-15T09:06:43.232Z,6.00
2018-07-15T09:07:47.242Z,6.50
2018-07-15T09:08:51.272Z,7.25
2018-07-15T09:09:55.315Z,6.50
2018-07-15T09:10:59.302Z,6.72
2018-07-15T09:12:03.575Z,7.17
2018-07-15T09:13:07.561Z,6.22
2018-07-15T09:14:11.709Z,6.72
2018-07-15T09:15:15.739Z,6.83
2018-07-15T09:16:19.845Z,7.12
2018-07-15T09:17:24.068Z,7.30
2018-07-15T09:18:28.171Z,7.85
2018-07-15T09:19:32.483Z,6.60
2018-07-15T09:20:36.505Z,5.65
2018-07-15T09:21:40.522Z,6.28
2018-07-15T09:22:44.567Z,6.47
2018-07-15T09:23:48.602Z,7.37
2018-07-15T09:24:52.586Z,6.90
2018-07-15T09:25:56.698Z,7.03
2018-07-15T09:27:00.707Z,6.22
2018-07-15T09:28:04.953Z,7.10
2018-07-15T09:29:08.962Z,6.90
2018-07-15T09:30:13.003Z,7.45
2018-07-15T09:31:17.056Z,6.37
2018-07-15T09:32:21.093Z,6.50
2018-07-15T09:33:25.138Z,6.30
2018-07-15T09:34:29.159Z,6.47
2018-07-15T09:35:33.169Z,6.53
2018-07-15T09:36:37.234Z,6.78
2018-07-15T09:37:41.263Z,6.60
2018-07-15T09:38:45.290Z,6.40
2018-07-15T09:39:49.350Z,6.33
2018-07-15T09:40:53.399Z,7.25
2018-07-15T09:41:57.445Z,8.18
2018-07-15T09:43:01.487Z,6.62
2018-07-15T09:44:05.256Z,5.95
2018-07-15T09:45:09.193Z,6.40
2018-07-15T09:46:13.306Z,5.62
2018-07-15T09:47:17.401Z,6.22
2018-07-15T09:48:21.400Z,6.40
2018-07-15T09:49:25.458Z,5.50
2018-07-15T09:50:29.488Z,6.12
2018-07-15T09:51:33.519Z,7.28
2018-07-15T09:52:37.579Z,6.80
2018-07-15T09:53:41.610Z,5.85
2018-07-15T09:54:45.618Z,6.47
2018-07-15T09:55:49.677Z,7.10
2018-07-15T09:56:53.739Z,6.10
2018-07-15T09:57:57.893Z,6.47
2018-07-15T09:59:02.259Z,7.03
2018-07-15T10:00:07.301Z,5.55
2018-07-15T10:01:11.406Z,5.95
2018-07-15T10:02:15.425Z,5.87
2018-07-15T10:03:19.431Z,6.33
2018-07-15T10:04:23.160Z,5.35
2018-07-15T10:05:27.022Z,5.35
2018-07-15T10:06:31.133Z,4.92
2018-07-15T10:07:35.265Z,5.33
2018-07-15T10:08:39.303Z,6.20
2018-07-15T10:09:43.359Z,5.33
2018-07-15T10:10:47.121Z,6.30
2018-07-15T10:11:51.106Z,6.25
2018-07-15T10:12:55.135Z,9.08
2018-07-15T10:13:59.303Z,10.28
2018-07-15T10:15:03.335Z,7.40
2018-07-15T10:16:07.358Z,6.28
2018-07-15T10:17:11.387Z,8.90
2018-07-15T10:18:15.393Z,6.30
2018-07-15T10:19:19.951Z,6.33
2018-07-15T10:20:23.724Z,7.03
2018-07-15T10:21:27.596Z,6.70
2018-07-15T10:22:31.726Z,5.80
2018-07-15T10:23:35.745Z,6.45
2018-07-15T10:24:39.746Z,5.40
2018-07-15T10:25:43.858Z,5.22
2018-07-15T10:26:47.856Z,6.45
2018-07-15T10:27:51.869Z,5.60
2018-07-15T10:28:55.922Z,7.50
2018-07-15T10:30:00.122Z,5.85
2018-07-15T10:31:04.126Z,5.33
2018-07-15T10:32:08.136Z,6.30
2018-07-15T10:33:12.265Z,5.55
2018-07-15T10:34:16.214Z,6.25
2018-07-15T10:35:20.252Z,6.40
2018-07-15T10:36:24.253Z,6.67
2018-07-15T10:37:28.309Z,6.03
2018-07-15T10:38:32.315Z,6.72
2018-07-15T10:39:36.378Z,5.87
2018-07-15T10:40:40.518Z,6.65
2018-07-15T10:41:44.569Z,7.08
2018-07-15T10:42:48.784Z,6.55
2018-07-15T10:43:52.983Z,6.42
2018-07-15T10:44:57.011Z,5.75
2018-07-15T10:46:01.014Z,6.10
2018-07-15T10:47:05.120Z,5.25
2018-07-15T10:48:09.493Z,6.72
2018-07-15T10:49:13.522Z,6.72
2018-07-15T10:50:17.562Z,5.67
2018-07-15T10:51:21.626Z,6.20
2018-07-15T10:52:25.657Z,5.72
2018-07-15T10:53:29.670Z,6.92
2018-07-15T10:54:33.914Z,8.88
2018-07-15T10:55:37.978Z,7.53
2018-07-15T10:56:41.980Z,5.85
2018-07-15T10:57:46.043Z,5.70
2018-07-15T10:58:49.774Z,6.12
2018-07-15T10:59:53.700Z,5.72
2018-07-15T11:00:57.864Z,5.70
2018-07-15T11:02:01.860Z,5.92
2018-07-15T11:03:05.935Z,6.37
2018-07-15T11:04:09.939Z,6.60
2018-07-15T11:05:13.962Z,7.53
2018-07-15T11:06:18.025Z,6.35
2018-07-15T11:07:22.052Z,6.58
2018-07-15T11:08:26.111Z,6.75
2018-07-15T11:09:30.206Z,5.90
2018-07-15T11:10:34.282Z,7.22
2018-07-15T11:11:38.418Z,6.22
2018-07-15T11:12:42.459Z,6.87
2018-07-15T11:13:46.523Z,6.55
2018-07-15T11:14:50.524Z,5.25
2018-07-15T11:15:54.655Z,6.83
2018-07-15T11:16:58.881Z,6.25
2018-07-15T11:18:03.045Z,7.97
2018-07-15T11:19:07.302Z,6.03
2018-07-15T11:20:11.348Z,5.65
2018-07-15T11:21:15.467Z,5.80
2018-07-15T11:22:19.555Z,6.10
2018-07-15T11:23:23.507Z,6.67
2018-07-15T11:24:27.507Z,6.08
2018-07-15T11:25:31.521Z,6.12
2018-07-15T11:26:35.579Z,6.58
2018-07-15T11:27:39.683Z,6.55
2018-07-15T11:28:43.712Z,6.08
2018-07-15T11:29:47.870Z,6.90
2018-07-15T11:30:52.179Z,6.37
2018-07-15T11:31:56.175Z,5.97
2018-07-15T11:33:00.248Z,6.90
2018-07-15T11:34:04.028Z,6.78
2018-07-15T11:35:08.135Z,6.62
2018-07-15T11:36:12.196Z,6.25
2018-07-15T11:37:16.301Z,6.37
2018-07-15T11:38:20.311Z,7.67
2018-07-15T11:39:24.314Z,6.58
2018-07-15T11:40:28.070Z,5.58
2018-07-15T11:41:32.074Z,6.62
2018-07-15T11:42:36.067Z,6.47
2018-07-15T11:43:40.111Z,6.28
2018-07-15T11:44:44.218Z,6.42
2018-07-15T11:45:48.298Z,6.08
2018-07-15T11:46:52.310Z,5.95
2018-07-15T11:47:56.334Z,5.47
2018-07-15T11:49:00.422Z,5.10
2018-07-15T11:50:04.519Z,5.65
2018-07-15T11:51:08.523Z,5.78
2018-07-15T11:52:12.690Z,5.35
2018-07-15T11:53:16.845Z,6.20
2018-07-15T11:54:21.009Z,6.10
2018-07-15T11:55:25.148Z,5.60
2018-07-15T11:56:29.232Z,5.67
2018-07-15T11:57:33.236Z,5.42
2018-07-15T11:58:37.315Z,7.42
2018-07-15T11:59:41.351Z,6.10
2018-07-15T12:00:45.362Z,5.85
2018-07-15T12:01:49.448Z,5.40
2018-07-15T12:02:53.399Z,5.87
2018-07-15T12:03:57.490Z,6.30
2018-07-15T12:05:01.489Z,6.00
2018-07-15T12:06:05.511Z,6.25
2018-07-15T12:07:09.615Z,6.75
2018-07-15T12:08:13.588Z,5.25
2018-07-15T12:09:17.741Z,9.38
2018-07-15T12:10:21.701Z,5.80
2018-07-15T12:11:25.765Z,6.10
2018-07-15T12:12:29.687Z,6.20
2018-07-15T12:13:33.877Z,5.95
2018-07-15T12:14:37.916Z,6.37
2018-07-15T12:15:41.943Z,8.15
2018-07-15T12:16:45.963Z,5.80
2018-07-15T12:17:49.958Z,5.12
2018-07-15T12:18:54.141Z,6.17
2018-07-15T12:19:58.142Z,5.92
2018-07-15T12:21:02.167Z,5.15
2018-07-15T12:22:06.006Z,5.70
2018-07-15T12:23:09.886Z,5.75
2018-07-15T12:24:14.061Z,5.97
2018-07-15T12:25:18.100Z,6.37
2018-07-15T12:26:22.302Z,5.35
2018-07-15T12:27:26.094Z,5.60
2018-07-15T12:28:30.013Z,5.90
2018-07-15T12:29:34.106Z,5.53
2018-07-15T12:30:38.118Z,5.70
2018-07-15T12:31:42.256Z,5.85
2018-07-15T12:32:46.291Z,5.35
2018-07-15T12:33:50.323Z,5.95
2018-07-15T12:34:54.463Z,5.60
2018-07-15T12:35:58.543Z,6.12
2018-07-15T12:37:03.432Z,7.25
2018-07-15T12:38:07.476Z,6.75
2018-07-15T12:39:11.491Z,6.10
2018-07-15T12:40:15.638Z,6.12
2018-07-15T12:41:19.698Z,6.87
2018-07-15T12:42:23.715Z,8.40
2018-07-15T12:43:27.748Z,5.80
2018-07-15T12:44:31.945Z,6.00
2018-07-15T12:45:36.019Z,5.90
2018-07-15T12:46:40.063Z,6.12
2018-07-15T12:47:44.071Z,5.67
2018-07-15T12:48:48.285Z,6.00
2018-07-15T12:49:52.360Z,5.60
2018-07-15T12:50:56.373Z,4.83
2018-07-15T12:52:00.402Z,5.83
2018-07-15T12:53:04.444Z,7.90
2018-07-15T12:54:08.498Z,5.78
2018-07-15T12:55:12.490Z,6.45
2018-07-15T12:56:16.515Z,5.95
2018-07-15T12:57:20.571Z,6.42
2018-07-15T12:58:24.589Z,6.62
2018-07-15T12:59:28.729Z,6.30
2018-07-15T13:00:32.887Z,5.60
2018-07-15T13:01:36.963Z,6.03
2018-07-15T13:02:41.112Z,6.17
2018-07-15T13:03:45.087Z,5.25
2018-07-15T13:04:49.133Z,6.55
2018-07-15T13:05:53.428Z,5.60
2018-07-15T13:06:57.476Z,6.50
2018-07-15T13:08:01.597Z,5.47
2018-07-15T13:09:06.294Z,5.83
2018-07-15T13:10:10.311Z,6.20
2018-07-15T13:11:14.340Z,5.60
2018-07-15T13:12:18.387Z,5.70
2018-07-15T13:13:22.427Z,5.70
2018-07-15T13:14:26.524Z,5.65
2018-07-15T13:15:30.780Z,5.55
2018-07-15T13:16:34.791Z,5.80
2018-07-15T13:17:38.933Z,6.22
2018-07-15T13:18:43.074Z,5.75
2018-07-15T13:19:47.078Z,5.20
2018-07-15T13:20:51.103Z,5.60
2018-07-15T13:21:55.127Z,5.50
2018-07-15T13:22:59.187Z,5.55
2018-07-15T13:24:03.294Z,5.47
2018-07-15T13:25:07.355Z,6.00
2018-07-15T13:26:11.353Z,5.40
2018-07-15T13:27:15.353Z,6.03
2018-07-15T13:28:19.410Z,5.30
2018-07-15T13:29:23.489Z,6.40
2018-07-15T13:30:27.493Z,7.25
2018-07-15T13:31:31.543Z,6.85
2018-07-15T13:32:35.589Z,5.75
2018-07-15T13:33:39.745Z,5.80
2018-07-15T13:34:43.740Z,5.97
2018-07-15T13:35:47.863Z,6.95
2018-07-15T13:36:51.900Z,6.28
2018-07-15T13:37:55.982Z,5.28
2018-07-15T13:39:00.136Z,5.70
2018-07-15T13:40:04.237Z,6.40
2018-07-15T13:41:08.255Z,6.25
2018-07-15T13:42:12.376Z,6.10
2018-07-15T13:43:16.374Z,5.80
2018-07-15T13:44:20.365Z,6.10
2018-07-15T13:45:24.343Z,6.55
2018-07-15T13:46:28.341Z,5.92
2018-07-15T13:47:32.340Z,6.25
2018-07-15T13:48:36.384Z,5.87
2018-07-15T13:49:40.468Z,5.33
2018-07-15T13:50:44.495Z,6.53
2018-07-15T13:51:48.499Z,5.67
2018-07-15T13:52:52.412Z,5.95
2018-07-15T13:53:56.376Z,6.87
2018-07-15T13:55:00.487Z,5.33
2018-07-15T13:56:04.521Z,4.45
2018-07-15T13:57:08.530Z,6.08
2018-07-15T13:58:12.534Z,5.87
2018-07-15T13:59:16.563Z,5.97
2018-07-15T14:00:20.618Z,5.53
2018-07-15T14:01:24.621Z,6.35